createdAt,value
2023-04-28T00:01:21.932Z,96755.25
2023-04-28T00:03:48.776Z,96752.72
2023-04-28T00:06:15.526Z,96748.41
2023-04-28T00:08:41.895Z,96751.81
2023-04-28T00:11:11.486Z,96747.53
2023-04-28T00:13:38.846Z,96744.97
2023-04-28T00:16:05.858Z,96734.72
2023-04-28T00:18:33.558Z,96748.34
2023-04-28T00:21:01.461Z,96747.50
2023-04-28T00:23:27.978Z,96741.50
2023-04-28T00:25:55.543Z,96740.63
2023-04-28T00:28:33.620Z,96732.94
2023-04-28T00:31:01.024Z,96738.00
2023-04-28T00:33:27.616Z,96735.44
2023-04-28T00:36:01.219Z,96733.75
2023-04-28T00:38:27.908Z,96734.59
2023-04-28T00:40:54.366Z,96727.69
2023-04-28T00:43:20.842Z,96736.25
2023-04-28T00:45:48.700Z,96728.53
2023-04-28T00:48:15.349Z,96735.38
2023-04-28T00:50:42.936Z,96736.16
2023-04-28T00:53:11.037Z,96742.13
2023-04-28T00:55:38.559Z,96731.88
2023-04-28T00:58:05.673Z,96730.16
2023-04-28T01:00:32.379Z,96714.72
2023-04-28T01:02:59.181Z,96716.50
2023-04-28T01:05:26.427Z,96709.69
2023-04-28T01:07:53.161Z,96723.28
2023-04-28T01:10:20.025Z,96721.56
2023-04-28T01:12:46.458Z,96714.75
2023-04-28T01:15:17.239Z,96711.31
2023-04-28T01:17:44.091Z,96707.84
2023-04-28T01:20:11.209Z,96702.78
2023-04-28T01:22:37.836Z,96718.06
2023-04-28T01:25:04.630Z,96709.56
2023-04-28T01:27:31.095Z,96708.69
2023-04-28T01:29:58.502Z,96715.50
2023-04-28T01:32:24.988Z,96712.91
2023-04-28T01:34:51.879Z,96709.50
2023-04-28T01:37:18.332Z,96707.81
2023-04-28T01:39:44.768Z,96703.56
2023-04-28T01:42:11.333Z,96705.25
2023-04-28T01:44:37.757Z,96697.56
2023-04-28T01:47:04.311Z,96694.19
2023-04-28T01:49:30.772Z,96700.13
2023-04-28T01:51:57.304Z,96709.47
2023-04-28T01:54:23.829Z,96695.84
2023-04-28T01:56:50.396Z,96694.13
2023-04-28T01:59:16.802Z,96686.44
2023-04-28T02:01:43.326Z,96694.97
2023-04-28T02:04:10.019Z,96694.97
2023-04-28T02:06:36.645Z,96701.75
2023-04-28T02:09:03.116Z,96684.72
2023-04-28T02:11:29.578Z,96675.28
2023-04-28T02:13:56.085Z,96683.81
2023-04-28T02:16:22.689Z,96681.25
2023-04-28T02:18:49.074Z,96674.47
2023-04-28T02:21:16.003Z,96664.19
2023-04-28T02:23:42.897Z,96677.03
2023-04-28T02:26:09.324Z,96678.72
2023-04-28T02:28:35.832Z,96673.56
2023-04-28T02:31:07.698Z,96666.75
2023-04-28T02:33:34.453Z,96680.34
2023-04-28T02:36:02.096Z,96678.63
2023-04-28T02:38:28.974Z,96674.41
2023-04-28T02:41:02.854Z,96677.81
2023-04-28T02:43:29.277Z,96665.84
2023-04-28T02:45:55.887Z,96664.16
2023-04-28T02:48:23.697Z,96668.34
2023-04-28T02:50:50.716Z,96670.03
2023-04-28T02:53:17.100Z,96672.63
2023-04-28T02:55:45.591Z,96668.31
2023-04-28T02:58:12.248Z,96660.66
2023-04-28T03:00:38.880Z,96663.19
2023-04-28T03:03:05.557Z,96656.41
2023-04-28T03:05:32.064Z,96663.22
2023-04-28T03:07:59.351Z,96658.13
2023-04-28T03:10:25.967Z,96660.66
2023-04-28T03:12:52.512Z,96660.63
2023-04-28T03:15:18.965Z,96658.13
2023-04-28T03:17:45.636Z,96647.88
2023-04-28T03:20:12.995Z,96649.56
2023-04-28T03:22:39.488Z,96652.16
2023-04-28T03:25:06.138Z,96643.66
2023-04-28T03:27:32.669Z,96653.00
2023-04-28T03:29:59.105Z,96657.22
2023-04-28T03:32:25.582Z,96650.44
2023-04-28T03:34:53.109Z,96643.66
2023-04-28T03:37:19.665Z,96636.00
2023-04-28T03:39:46.162Z,96624.84
2023-04-28T03:42:12.866Z,96624.88
2023-04-28T03:44:39.237Z,96624.91
2023-04-28T03:47:05.717Z,96624.03
2023-04-28T03:49:32.175Z,96620.59
2023-04-28T03:51:58.852Z,96623.16
2023-04-28T03:54:25.337Z,96620.59
2023-04-28T03:56:51.897Z,96621.47
2023-04-28T03:59:18.435Z,96613.78
2023-04-28T04:01:44.893Z,96616.34
2023-04-28T04:04:11.665Z,96607.84
2023-04-28T04:06:38.489Z,96613.81
2023-04-28T04:09:05.165Z,96609.56
2023-04-28T04:11:31.559Z,96616.38
2023-04-28T04:13:57.942Z,96618.97
2023-04-28T04:16:24.512Z,96620.66
2023-04-28T04:18:51.177Z,96618.94
2023-04-28T04:21:18.027Z,96598.44
2023-04-28T04:23:44.569Z,96611.34
2023-04-28T04:26:11.122Z,96601.94
2023-04-28T04:28:37.560Z,96599.44
2023-04-28T04:31:05.377Z,96602.84
2023-04-28T04:33:32.122Z,96604.56
2023-04-28T04:35:58.711Z,96605.41
2023-04-28T04:38:25.362Z,96602.91
2023-04-28T04:40:51.961Z,96603.78
2023-04-28T04:43:18.406Z,96596.13
2023-04-28T04:45:45.887Z,96595.31
2023-04-28T04:48:12.791Z,96591.03
2023-04-28T04:50:41.026Z,96588.50
2023-04-28T04:53:09.444Z,96596.19
2023-04-28T04:55:38.886Z,96600.47
2023-04-28T04:58:05.255Z,96595.34
2023-04-28T05:00:31.905Z,96585.94
2023-04-28T05:02:58.419Z,96586.84
2023-04-28T05:05:25.407Z,96583.44
2023-04-28T05:07:51.930Z,96568.16
2023-04-28T05:10:18.501Z,96566.47
2023-04-28T05:12:46.788Z,96571.59
2023-04-28T05:15:15.045Z,96582.69
2023-04-28T05:17:41.582Z,96581.88
2023-04-28T05:20:08.736Z,96596.38
2023-04-28T05:22:35.385Z,96592.09
2023-04-28T05:25:05.102Z,96586.16
2023-04-28T05:27:31.582Z,96581.13
2023-04-28T05:29:59.908Z,96572.59
2023-04-28T05:32:26.542Z,96577.75
2023-04-28T05:34:53.005Z,96576.06
2023-04-28T05:37:19.447Z,96567.56
2023-04-28T05:39:46.213Z,96576.13
2023-04-28T05:42:12.774Z,96578.72
2023-04-28T05:44:40.636Z,96582.13
2023-04-28T05:47:09.061Z,96608.56
2023-04-28T05:49:35.639Z,96611.13
2023-04-28T05:52:02.423Z,96613.69
2023-04-28T05:54:28.829Z,96604.31
2023-04-28T05:56:55.672Z,96603.47
2023-04-28T05:59:22.213Z,96589.88
2023-04-28T06:01:50.713Z,96599.25
2023-04-28T06:04:17.700Z,96585.66
2023-04-28T06:06:44.738Z,96592.47
2023-04-28T06:09:11.242Z,96591.66
2023-04-28T06:11:37.953Z,96589.09
2023-04-28T06:14:04.430Z,96584.00
2023-04-28T06:16:31.006Z,96581.47
2023-04-28T06:18:57.741Z,96575.50
2023-04-28T06:21:24.907Z,96571.28
2023-04-28T06:23:51.261Z,96570.44
2023-04-28T06:26:18.431Z,96564.47
2023-04-28T06:28:45.489Z,96563.63
2023-04-28T06:31:12.017Z,96550.88
2023-04-28T06:33:38.545Z,96552.59
2023-04-28T06:36:05.477Z,96549.19
2023-04-28T06:38:32.021Z,96556.03
2023-04-28T06:40:58.550Z,96561.97
2023-04-28T06:43:24.946Z,96557.72
2023-04-28T06:45:51.514Z,96562.03
2023-04-28T06:48:18.089Z,96562.88
2023-04-28T06:50:44.511Z,96568.84
2023-04-28T06:53:11.524Z,96577.34
2023-04-28T06:55:38.003Z,96580.78
2023-04-28T06:58:04.551Z,96597.84
2023-04-28T07:00:31.121Z,96602.13
2023-04-28T07:02:57.813Z,96610.66
2023-04-28T07:05:24.473Z,96609.00
2023-04-28T07:07:51.016Z,96609.09
2023-04-28T07:10:17.722Z,96594.50
2023-04-28T07:12:44.573Z,96615.06
2023-04-28T07:15:11.786Z,96609.13
2023-04-28T07:17:38.844Z,96601.44
2023-04-28T07:20:06.922Z,96603.16
2023-04-28T07:22:33.474Z,96588.63
2023-04-28T07:25:00.011Z,96598.06
2023-04-28T07:27:26.643Z,96594.63
2023-04-28T07:29:53.113Z,96588.66
2023-04-28T07:32:19.839Z,96597.16
2023-04-28T07:34:46.476Z,96593.75
2023-04-28T07:37:13.302Z,96587.78
2023-04-28T07:39:40.585Z,96590.31
2023-04-28T07:42:07.310Z,96574.09
2023-04-28T07:44:33.962Z,96580.94
2023-04-28T07:47:01.160Z,96580.94
2023-04-28T07:49:31.308Z,96578.38
2023-04-28T07:51:57.896Z,96584.34
2023-04-28T07:54:25.059Z,96583.50
2023-04-28T07:56:51.599Z,96588.59
2023-04-28T07:59:18.071Z,96581.81
2023-04-28T08:01:44.558Z,96571.63
2023-04-28T08:04:11.713Z,96558.84
2023-04-28T08:06:40.000Z,96570.81
2023-04-28T08:09:07.589Z,96564.84
2023-04-28T08:11:34.946Z,96579.38
2023-04-28T08:14:03.190Z,96566.56
2023-04-28T08:16:31.008Z,96561.44
2023-04-28T08:18:58.964Z,96568.25
2023-04-28T08:21:26.013Z,96569.94
2023-04-28T08:23:52.646Z,96562.28
2023-04-28T08:26:20.423Z,96560.59
2023-04-28T08:28:46.909Z,96558.03
2023-04-28T08:31:13.404Z,96557.19
2023-04-28T08:33:44.267Z,96561.47
2023-04-28T08:36:14.906Z,96553.81
2023-04-28T08:38:41.808Z,96557.22
2023-04-28T08:41:08.487Z,96558.09
2023-04-28T08:43:41.256Z,96560.66
2023-04-28T08:46:08.247Z,96561.50
2023-04-28T08:48:48.672Z,96566.66
2023-04-28T08:51:24.517Z,96560.66
2023-04-28T08:56:31.801Z,96565.78
2023-04-28T08:59:05.030Z,96572.56
2023-04-28T09:01:32.871Z,96568.31
2023-04-28T09:04:03.891Z,96574.25
2023-04-28T09:06:38.393Z,96573.44
2023-04-28T09:09:31.687Z,96575.13
2023-04-28T09:12:02.566Z,96564.03
2023-04-28T09:14:33.027Z,96570.00
2023-04-28T09:16:59.518Z,96580.25
2023-04-28T09:19:38.146Z,96574.31
2023-04-28T09:22:18.153Z,96576.88
2023-04-28T09:24:53.088Z,96570.06
2023-04-28T09:27:27.311Z,96555.63
2023-04-28T09:29:54.254Z,96551.28
2023-04-28T09:32:23.571Z,96535.16
2023-04-28T09:34:56.998Z,96519.78
2023-04-28T09:37:26.031Z,96532.56
2023-04-28T09:39:54.497Z,96527.41
2023-04-28T09:42:44.145Z,96536.78
2023-04-28T09:45:12.531Z,96525.75
2023-04-28T09:47:41.698Z,96526.59
2023-04-28T09:50:12.475Z,96524.88
2023-04-28T09:52:39.394Z,96507.84
2023-04-28T09:55:08.665Z,96511.28
2023-04-28T09:57:36.841Z,96501.03
2023-04-28T10:00:06.430Z,96501.03
2023-04-28T10:02:42.637Z,96505.25
2023-04-28T10:05:11.431Z,96488.22
2023-04-28T10:07:39.295Z,96499.31
2023-04-28T10:10:07.753Z,96501.03
2023-04-28T10:12:35.296Z,96497.63
2023-04-28T10:15:05.104Z,96497.63
2023-04-28T10:17:33.054Z,96486.53
2023-04-28T10:20:00.792Z,96485.69
2023-04-28T10:23:05.461Z,96482.25
2023-04-28T10:25:35.257Z,96489.94
2023-04-28T10:28:07.567Z,96495.88
2023-04-28T10:30:35.178Z,96494.19
2023-04-28T10:33:14.015Z,96498.44
2023-04-28T10:35:42.633Z,96490.75
2023-04-28T10:38:14.118Z,96493.31
2023-04-28T10:40:47.183Z,96491.56
2023-04-28T10:43:32.666Z,96476.22
2023-04-28T10:46:01.980Z,96477.09
2023-04-28T10:48:34.886Z,96468.56
2023-04-28T10:51:09.236Z,96458.31
2023-04-28T10:53:53.640Z,96466.84
2023-04-28T10:56:27.375Z,96457.50
2023-04-28T10:58:58.187Z,96454.94
2023-04-28T11:01:29.815Z,96455.81
2023-04-28T11:04:02.572Z,96460.09
2023-04-28T11:06:34.608Z,96452.44
2023-04-28T11:09:32.978Z,96450.75
2023-04-28T11:12:10.575Z,96434.56
2023-04-28T11:14:40.938Z,96439.69
2023-04-28T11:17:09.248Z,96444.81
2023-04-28T11:19:48.282Z,96447.41
2023-04-28T11:22:15.137Z,96444.00
2023-04-28T11:24:41.864Z,96437.16
2023-04-28T11:27:08.531Z,96437.16
2023-04-28T11:29:39.414Z,96434.63
2023-04-28T11:32:07.898Z,96438.03
2023-04-28T11:34:35.442Z,96438.88
2023-04-28T11:37:03.316Z,96436.34
2023-04-28T11:39:31.656Z,96426.97
2023-04-28T11:42:00.420Z,96435.47
2023-04-28T11:44:28.740Z,96451.69
2023-04-28T11:47:03.334Z,96449.16
2023-04-28T11:49:33.583Z,96432.06
2023-04-28T11:52:08.005Z,96426.09
2023-04-28T11:54:35.240Z,96438.91
2023-04-28T11:57:04.255Z,96430.38
2023-04-28T11:59:35.578Z,96428.69
2023-04-28T12:02:06.846Z,96429.53
2023-04-28T12:04:36.454Z,96427.81
2023-04-28T12:07:12.943Z,96424.41
2023-04-28T12:09:41.537Z,96426.09
2023-04-28T12:12:11.827Z,96430.38
2023-04-28T12:14:58.125Z,96444.03
2023-04-28T12:17:29.781Z,96435.50
2023-04-28T12:19:57.284Z,96445.75
2023-04-28T12:22:25.163Z,96450.00
2023-04-28T12:25:17.730Z,96447.44
2023-04-28T12:28:07.459Z,96451.72
2023-04-28T12:30:38.816Z,96459.38
2023-04-28T12:33:05.406Z,96454.28
2023-04-28T12:35:33.103Z,96460.25
2023-04-28T12:37:59.726Z,96456.81
2023-04-28T12:40:26.426Z,96455.94
2023-04-28T12:42:53.570Z,96454.25
2023-04-28T12:45:20.016Z,96454.25
2023-04-28T12:47:47.197Z,96458.50
2023-04-28T12:50:13.672Z,96448.28
2023-04-28T12:52:40.208Z,96450.84
2023-04-28T12:55:07.290Z,96446.56
2023-04-28T12:57:38.052Z,96449.97
2023-04-28T13:00:06.787Z,96447.41
2023-04-28T13:02:33.654Z,96439.72
2023-04-28T13:05:00.478Z,96443.16
2023-04-28T13:07:27.652Z,96444.84
2023-04-28T13:09:55.761Z,96437.13
2023-04-28T13:12:22.841Z,96453.34
2023-04-28T13:14:49.540Z,96442.25
2023-04-28T13:17:16.181Z,96440.53
2023-04-28T13:19:43.231Z,96443.94
2023-04-28T13:22:10.047Z,96434.53
2023-04-28T13:24:36.856Z,96427.66
2023-04-28T13:27:04.157Z,96434.47
2023-04-28T13:29:30.783Z,96419.97
2023-04-28T13:31:57.336Z,96416.50
2023-04-28T13:34:23.792Z,96413.06
2023-04-28T13:36:51.000Z,96411.31
2023-04-28T13:39:20.335Z,96407.00
2023-04-28T13:41:47.115Z,96410.44
2023-04-28T13:44:13.650Z,96418.09
2023-04-28T13:46:40.121Z,96417.28
2023-04-28T13:49:07.818Z,96416.41
2023-04-28T13:51:34.297Z,96402.72
2023-04-28T13:54:04.084Z,96389.03
2023-04-28T13:56:31.859Z,96396.75
2023-04-28T13:58:58.832Z,96406.16
2023-04-28T14:01:25.494Z,96394.16
2023-04-28T14:03:53.375Z,96395.84
2023-04-28T14:06:21.427Z,96391.53
2023-04-28T14:08:48.892Z,96396.72
2023-04-28T14:11:15.383Z,96390.72
2023-04-28T14:13:42.850Z,96411.25
2023-04-28T14:16:09.384Z,96408.69
2023-04-28T14:18:35.944Z,96406.13
2023-04-28T14:21:03.204Z,96406.13
2023-04-28T14:23:29.775Z,96398.44
2023-04-28T14:25:57.925Z,96405.28
2023-04-28T14:28:24.459Z,96394.97
2023-04-28T14:30:53.953Z,96391.59
2023-04-28T14:33:20.404Z,96389.00
2023-04-28T14:35:46.834Z,96392.47
2023-04-28T14:38:13.890Z,96389.03
2023-04-28T14:40:40.426Z,96379.59
2023-04-28T14:43:06.961Z,96375.31
2023-04-28T14:45:33.321Z,96371.00
2023-04-28T14:47:59.805Z,96372.72
2023-04-28T14:50:26.286Z,96369.34
2023-04-28T14:52:52.711Z,96372.72
2023-04-28T14:55:19.176Z,96365.00
2023-04-28T14:57:45.547Z,96361.53
2023-04-28T15:00:12.467Z,96368.34
2023-04-28T15:02:39.294Z,96373.44
2023-04-28T15:05:06.564Z,96362.34
2023-04-28T15:07:33.216Z,96383.75
2023-04-28T15:10:00.068Z,96379.41
2023-04-28T15:12:29.998Z,96382.88
2023-04-28T15:14:56.557Z,96383.75
2023-04-28T15:17:23.282Z,96369.25
2023-04-28T15:19:49.718Z,96380.34
2023-04-28T15:22:16.170Z,96370.94
2023-04-28T15:24:42.700Z,96358.97
2023-04-28T15:27:09.241Z,96344.44
2023-04-28T15:29:35.618Z,96345.25
2023-04-28T15:32:02.097Z,96342.66
2023-04-28T15:34:28.635Z,96352.13
2023-04-28T15:36:55.195Z,96352.94
2023-04-28T15:39:21.654Z,96339.25
2023-04-28T15:41:48.121Z,96329.81
2023-04-28T15:44:14.500Z,96330.72
2023-04-28T15:46:41.065Z,96332.44
2023-04-28T15:49:08.493Z,96328.16
2023-04-28T15:51:34.925Z,96323.09
2023-04-28T15:54:01.297Z,96335.06
2023-04-28T15:56:28.339Z,96341.91
2023-04-28T15:58:54.904Z,96347.91
2023-04-28T16:01:22.438Z,96353.09
2023-04-28T16:03:49.085Z,96354.72
2023-04-28T16:06:15.900Z,96348.78
2023-04-28T16:08:42.724Z,96353.03
2023-04-28T16:11:17.475Z,96352.22
2023-04-28T16:13:44.816Z,96338.56
2023-04-28T16:16:12.253Z,96351.34
2023-04-28T16:18:39.092Z,96342.78
2023-04-28T16:21:05.743Z,96346.19
2023-04-28T16:23:32.286Z,96335.97
2023-04-28T16:25:58.704Z,96342.78
2023-04-28T16:28:28.472Z,96341.94
2023-04-28T16:30:54.920Z,96347.03
2023-04-28T16:33:21.320Z,96335.97
2023-04-28T16:35:55.675Z,96339.41
2023-04-28T16:38:22.189Z,96339.34
2023-04-28T16:40:49.222Z,96338.56
2023-04-28T16:43:15.885Z,96341.97
2023-04-28T16:45:42.561Z,96344.56
2023-04-28T16:48:08.949Z,96350.56
2023-04-28T16:50:36.033Z,96348.06
2023-04-28T16:53:02.439Z,96350.63
2023-04-28T16:55:29.107Z,96348.03
2023-04-28T16:57:55.838Z,96343.72
2023-04-28T17:00:22.533Z,96336.00
2023-04-28T17:02:49.157Z,96332.56
2023-04-28T17:05:15.709Z,96332.59
2023-04-28T17:07:42.295Z,96350.56
2023-04-28T17:10:09.244Z,96338.56
2023-04-28T17:12:35.798Z,96334.31
2023-04-28T17:15:02.436Z,96332.59
2023-04-28T17:17:29.198Z,96326.59
2023-04-28T17:19:56.781Z,96321.50
2023-04-28T17:22:23.201Z,96319.78
2023-04-28T17:24:49.537Z,96325.81
2023-04-28T17:27:16.086Z,96324.09
2023-04-28T17:29:43.482Z,96336.94
2023-04-28T17:32:11.045Z,96330.91
2023-04-28T17:34:37.712Z,96322.41
2023-04-28T17:37:04.295Z,96323.22
2023-04-28T17:39:30.786Z,96319.81
2023-04-28T17:41:58.044Z,96323.22
2023-04-28T17:44:24.531Z,96322.34
2023-04-28T17:46:51.302Z,96340.31
2023-04-28T17:49:17.902Z,96336.03
2023-04-28T17:51:44.481Z,96331.78
2023-04-28T17:54:11.100Z,96329.25
2023-04-28T17:56:38.483Z,96328.38
2023-04-28T17:59:06.027Z,96332.66
2023-04-28T18:01:36.507Z,96325.81
2023-04-28T18:04:03.080Z,96318.97
2023-04-28T18:06:29.773Z,96324.13
2023-04-28T18:08:56.382Z,96341.22
2023-04-28T18:11:23.341Z,96335.22
2023-04-28T18:13:49.968Z,96330.13
2023-04-28T18:16:16.739Z,96307.88
2023-04-28T18:18:43.182Z,96307.03
2023-04-28T18:21:09.956Z,96307.94
2023-04-28T18:23:36.424Z,96332.69
2023-04-28T18:26:03.115Z,96338.69
2023-04-28T18:28:29.611Z,96325.84
2023-04-28T18:30:55.947Z,96323.31
2023-04-28T18:33:25.709Z,96332.72
2023-04-28T18:36:06.011Z,96336.16
2023-04-28T18:38:35.282Z,96340.41
2023-04-28T18:41:13.697Z,96338.72
2023-04-28T18:43:40.817Z,96348.94
2023-04-28T18:46:07.307Z,96344.69
2023-04-28T18:48:34.274Z,96337.84
2023-04-28T18:51:01.869Z,96322.50
2023-04-28T18:53:28.452Z,96319.91
2023-04-28T18:55:56.679Z,96307.97
2023-04-28T18:58:23.179Z,96314.81
2023-04-28T19:00:50.104Z,96316.53
2023-04-28T19:03:16.862Z,96342.97
2023-04-28T19:05:43.541Z,96338.69
2023-04-28T19:08:11.855Z,96351.53
2023-04-28T19:10:38.836Z,96358.38
2023-04-28T19:13:05.286Z,96374.63
2023-04-28T19:15:32.955Z,96381.47
2023-04-28T19:17:59.679Z,96380.59
2023-04-28T19:20:26.380Z,96384.88
2023-04-28T19:22:52.878Z,96389.19
2023-04-28T19:25:19.355Z,96396.00
2023-04-28T19:27:45.936Z,96404.56
2023-04-28T19:30:13.899Z,96393.44
2023-04-28T19:32:41.618Z,96397.72
2023-04-28T19:35:09.398Z,96394.28
2023-04-28T19:37:36.360Z,96396.84
2023-04-28T19:40:07.019Z,96396.84
2023-04-28T19:42:34.959Z,96392.56
2023-04-28T19:45:02.184Z,96393.41
2023-04-28T19:47:33.861Z,96391.69
2023-04-28T19:50:00.518Z,96383.16
2023-04-28T19:52:27.804Z,96382.28
2023-04-28T19:54:54.834Z,96375.44
2023-04-28T19:57:21.892Z,96373.72
2023-04-28T19:59:49.764Z,96375.44
2023-04-28T20:02:16.797Z,96378.88
2023-04-28T20:04:43.667Z,96375.50
2023-04-28T20:07:10.803Z,96385.78
2023-04-28T20:09:37.984Z,96397.75
2023-04-28T20:12:07.492Z,96397.75
2023-04-28T20:14:34.837Z,96406.28
2023-04-28T20:17:02.706Z,96400.31
2023-04-28T20:19:29.519Z,96400.34
2023-04-28T20:21:56.130Z,96399.50
2023-04-28T20:24:23.142Z,96391.78
2023-04-28T20:26:50.102Z,96395.25
2023-04-28T20:29:16.866Z,96409.75
2023-04-28T20:31:43.388Z,96402.94
2023-04-28T20:34:09.928Z,96419.19
2023-04-28T20:36:37.532Z,96417.50
2023-04-28T20:39:04.450Z,96406.34
2023-04-28T20:41:31.108Z,96411.47
2023-04-28T20:43:57.780Z,96408.06
2023-04-28T20:46:24.355Z,96414.06
2023-04-28T20:48:50.818Z,96416.63
2023-04-28T20:51:17.484Z,96415.78
2023-04-28T20:53:43.926Z,96415.81
2023-04-28T20:56:10.544Z,96409.81
2023-04-28T20:58:37.101Z,96417.53
2023-04-28T21:01:03.768Z,96420.94
2023-04-28T21:03:30.786Z,96426.91
2023-04-28T21:05:57.239Z,96427.78
2023-04-28T21:08:23.772Z,96414.97
2023-04-28T21:10:50.410Z,96421.81
2023-04-28T21:13:16.861Z,96418.44
2023-04-28T21:15:43.409Z,96420.13
2023-04-28T21:18:09.922Z,96428.69
2023-04-28T21:20:36.533Z,96425.25
2023-04-28T21:23:04.141Z,96420.97
2023-04-28T21:25:30.675Z,96419.28
2023-04-28T21:27:58.916Z,96419.28
2023-04-28T21:30:27.571Z,96417.59
2023-04-28T21:32:54.182Z,96420.97
2023-04-28T21:35:20.867Z,96416.72
2023-04-28T21:37:48.001Z,96419.28
2023-04-28T21:40:14.453Z,96411.56
2023-04-28T21:42:40.869Z,96415.84
2023-04-28T21:45:09.394Z,96416.72
2023-04-28T21:47:35.996Z,96411.56
2023-04-28T21:50:02.671Z,96412.44
2023-04-28T21:52:29.224Z,96412.44
2023-04-28T21:54:55.813Z,96409.00
2023-04-28T21:57:22.292Z,96412.41
2023-04-28T21:59:48.926Z,96413.22
2023-04-28T22:02:16.297Z,96414.94
2023-04-28T22:04:43.359Z,96415.81
2023-04-28T22:07:10.508Z,96420.09
2023-04-28T22:09:37.276Z,96425.22
2023-04-28T22:12:04.088Z,96426.06
2023-04-28T22:16:59.841Z,96422.66
2023-04-28T22:19:26.574Z,96426.94
2023-04-28T22:21:53.252Z,96427.81
2023-04-28T22:24:19.664Z,96434.63
2023-04-28T22:26:46.245Z,96432.94
2023-04-28T22:29:12.640Z,96432.91
2023-04-28T22:31:39.229Z,96433.78
2023-04-28T22:34:09.860Z,96434.63
2023-04-28T22:36:37.313Z,96431.22
2023-04-28T22:39:05.459Z,96426.94
2023-04-28T22:41:31.996Z,96416.69
2023-04-28T22:43:58.561Z,96424.41
2023-04-28T22:46:25.114Z,96431.22
2023-04-28T22:48:51.731Z,96426.97
2023-04-28T22:51:18.454Z,96424.41
2023-04-28T22:53:45.199Z,96421.00
2023-04-28T22:56:11.739Z,96415.84
2023-04-28T22:58:38.188Z,96415.84
2023-04-28T23:01:05.128Z,96419.25
2023-04-28T23:03:31.847Z,96414.16
2023-04-28T23:05:58.366Z,96413.28
2023-04-28T23:08:25.058Z,96408.16
2023-04-28T23:10:51.636Z,96406.47
2023-04-28T23:13:18.028Z,96413.28
2023-04-28T23:15:44.520Z,96414.13
2023-04-28T23:18:11.069Z,96414.13
2023-04-28T23:20:37.928Z,96411.56
2023-04-28T23:23:05.075Z,96407.31
2023-04-28T23:25:31.830Z,96405.56
2023-04-28T23:27:58.263Z,96412.41
2023-04-28T23:30:24.842Z,96403.88
2023-04-28T23:32:51.393Z,96403.88
2023-04-28T23:35:17.866Z,96403.00
2023-04-28T23:37:44.921Z,96404.69
2023-04-28T23:40:11.783Z,96395.31
2023-04-28T23:42:38.399Z,96403.00
2023-04-28T23:45:06.693Z,96398.72
2023-04-28T23:47:33.235Z,96396.97
2023-04-28T23:50:00.717Z,96392.72
2023-04-28T23:52:27.127Z,96388.44
2023-04-28T23:54:53.766Z,96388.44
2023-04-28T23:57:20.467Z,96390.97
2023-04-28T23:59:47.961Z,96391.00
